Terminal Aerodrome Forecast
Issued by NWS

Home | Current Version | Previous Version | Text Only | Print | Product List | Glossary Off
Versions: 1 2 3 4 5 6 7 8 9 10 11 12 13 14 15 16 17 18 19 20 21 22

896
FTUS43 KICT 192320
TAFCNU
TAF
KCNU 192320Z 2000/2024 17012KT P6SM SCT015
      TEMPO 2005/2008 OVC015
     FM200800 15010KT 4SM -SHRA BR VCTS OVC012CB
     FM201500 18013KT P6SM OVC020
     FM201800 19015G22KT P6SM SCT035=

USA.gov is the U.S. government's official web portal to all federal, state and local government web resources and services.